Time;durP1;ratioP1;P1;durP2;ratioP2;P2;SDS_P1;SDS_P2;PMS_P1;PMS_P2;Temp;Humidity;BMP_temperature;BMP_pressure;BME280_temperature;BME280_humidity;BME280_pressure;Samples;Min_cycle;Max_cycle;Signal;HPM_P1;HPM_P2
2020/12/10 00:00:37;;;;;;;23.02;8.90;;;;;;;2.52;100.00;101583.53;1835458;78;21037;-57
2020/12/10 00:03:05;;;;;;;36.68;9.80;;;;;;;2.50;100.00;101570.72;1835361;78;21329;-58
2020/12/10 00:05:33;;;;;;;26.65;9.63;;;;;;;2.46;100.00;101566.27;1835362;78;21012;-58
2020/12/10 00:08:03;;;;;;;23.38;9.55;;;;;;;2.43;100.00;101560.94;1834700;78;21021;-58
2020/12/10 00:10:32;;;;;;;36.33;10.25;;;;;;;2.43;100.00;101552.58;1834490;78;21151;-60
2020/12/10 00:12:59;;;;;;;25.25;9.13;;;;;;;2.46;100.00;101549.06;1834798;78;21191;-57
2020/12/10 00:15:27;;;;;;;22.35;8.88;;;;;;;2.51;100.00;101559.71;1834861;78;21467;-57
2020/12/10 00:17:54;;;;;;;22.35;9.45;;;;;;;2.52;100.00;101556.19;1834813;78;21060;-57
2020/12/10 00:20:22;;;;;;;18.15;8.38;;;;;;;2.50;100.00;101542.92;1834901;78;21182;-57
2020/12/10 00:22:49;;;;;;;21.48;8.35;;;;;;;2.50;100.00;101542.05;1834716;78;21132;-58
2020/12/10 00:25:17;;;;;;;23.92;8.95;;;;;;;2.49;100.00;101551.73;1834751;78;20974;-57
2020/12/10 00:27:44;;;;;;;28.42;9.40;;;;;;;2.47;100.00;101537.59;1834784;78;22043;-56
2020/12/10 00:30:12;;;;;;;27.58;8.55;;;;;;;2.46;100.00;101525.23;1834617;78;21120;-58
2020/12/10 00:32:40;;;;;;;18.73;8.15;;;;;;;2.45;100.00;101519.48;1834794;78;20985;-57
2020/12/10 00:35:08;;;;;;;22.52;8.95;;;;;;;2.45;100.00;101523.46;1834690;78;20981;-57
2020/12/10 00:37:36;;;;;;;22.95;8.55;;;;;;;2.44;100.00;101521.69;1810034;78;20907;-59
2020/12/10 00:40:07;;;;;;;22.37;9.20;;;;;;;2.44;100.00;101523.01;1801873;79;21360;-57
2020/12/10 00:42:35;;;;;;;29.15;8.55;;;;;;;2.43;100.00;101527.44;1802027;79;21085;-58
2020/12/10 00:45:04;;;;;;;23.20;8.43;;;;;;;2.42;100.00;101516.36;1801892;79;21076;-58
2020/12/10 00:47:31;;;;;;;22.42;9.30;;;;;;;2.41;100.00;101508.42;1801921;79;21120;-59
2020/12/10 00:50:01;;;;;;;22.80;8.73;;;;;;;2.40;100.00;101505.33;1802027;79;21591;-58
2020/12/10 00:52:29;;;;;;;19.90;8.43;;;;;;;2.42;100.00;101508.42;1802018;79;22111;-58
2020/12/10 00:54:59;;;;;;;24.20;9.45;;;;;;;2.45;100.00;101503.61;1801286;79;21085;-56
2020/12/10 00:57:29;;;;;;;21.20;8.53;;;;;;;2.46;100.00;101493.47;1801844;79;21125;-56
2020/12/10 00:59:57;;;;;;;21.35;8.70;;;;;;;2.44;100.00;101496.54;1802020;79;20974;-57
2020/12/10 01:02:25;;;;;;;21.90;9.23;;;;;;;2.41;100.00;101504.45;1801867;79;21100;-57
2020/12/10 01:04:53;;;;;;;19.25;8.50;;;;;;;2.41;100.00;101483.28;1801979;79;21153;-58
2020/12/10 01:07:20;;;;;;;29.80;10.63;;;;;;;2.41;100.00;101491.22;1801788;79;21049;-59
2020/12/10 01:09:48;;;;;;;21.68;9.50;;;;;;;2.39;100.00;101479.73;1801973;79;20965;-57
2020/12/10 01:12:15;;;;;;;27.85;9.55;;;;;;;2.41;100.00;101474.02;1801887;79;21100;-58
2020/12/10 01:14:43;;;;;;;27.00;9.45;;;;;;;2.44;100.00;101483.30;1801851;79;21093;-58
2020/12/10 01:17:10;;;;;;;24.77;8.33;;;;;;;2.44;100.00;101470.07;1801956;79;21364;-57
2020/12/10 01:19:38;;;;;;;30.48;8.83;;;;;;;2.46;100.00;101492.60;1801826;79;20880;-59
2020/12/10 01:22:06;;;;;;;34.95;10.35;;;;;;;2.45;100.00;101476.27;1801933;79;21066;-58
2020/12/10 01:24:35;;;;;;;20.82;8.40;;;;;;;2.43;100.00;101483.76;1801896;79;20978;-57
2020/12/10 01:27:02;;;;;;;18.53;9.00;;;;;;;2.42;100.00;101469.17;1801981;79;20974;-58
2020/12/10 01:29:30;;;;;;;19.65;8.03;;;;;;;2.41;100.00;101476.20;1801860;79;21418;-57
2020/12/10 01:31:57;;;;;;;19.48;8.78;;;;;;;2.41;100.00;101485.92;1801807;79;21054;-59
2020/12/10 01:34:25;;;;;;;26.48;9.20;;;;;;;2.44;100.00;101485.95;1801975;79;21564;-57
2020/12/10 01:36:52;;;;;;;22.10;8.60;;;;;;;2.47;100.00;101480.69;1815246;78;21122;-58
2020/12/10 01:39:20;;;;;;;22.60;8.58;;;;;;;2.48;100.00;101465.70;1831164;78;21059;-58
2020/12/10 01:41:49;;;;;;;30.97;9.65;;;;;;;2.49;100.00;101460.41;1763487;81;21122;-58
2020/12/10 01:44:18;;;;;;;34.83;8.78;;;;;;;2.49;100.00;101452.47;1794763;80;21066;-58
2020/12/10 01:46:45;;;;;;;24.50;9.08;;;;;;;2.50;100.00;101457.34;1763439;81;21069;-57
2020/12/10 01:49:13;;;;;;;21.45;8.20;;;;;;;2.48;100.00;101449.38;1794801;80;21141;-57
2020/12/10 01:51:41;;;;;;;20.08;8.98;;;;;;;2.48;100.00;101458.64;1763473;81;21153;-58
2020/12/10 01:54:08;;;;;;;21.80;8.10;;;;;;;2.46;100.00;101444.50;1795020;80;21390;-57
2020/12/10 01:56:36;;;;;;;18.70;8.55;;;;;;;2.45;100.00;101434.78;1744955;81;21197;-57
2020/12/10 01:59:04;;;;;;;17.90;8.18;;;;;;;2.49;100.00;101457.77;1764105;81;21526;-58
2020/12/10 02:01:33;;;;;;;22.58;8.38;;;;;;;2.52;100.00;101448.52;1733843;82;21163;-57
2020/12/10 02:04:01;;;;;;;21.82;8.58;;;;;;;2.55;100.00;101462.23;1764106;81;21589;-57
2020/12/10 02:06:29;;;;;;;19.20;7.70;;;;;;;2.57;100.00;101453.87;1763949;81;21708;-57
2020/12/10 02:08:57;;;;;;;15.95;7.33;;;;;;;2.57;100.00;101439.31;1733909;82;20901;-58
2020/12/10 02:11:26;;;;;;;28.92;8.80;;;;;;;2.56;100.00;101439.77;1763926;81;21028;-57
2020/12/10 02:13:54;;;;;;;18.55;7.75;;;;;;;2.58;100.00;101437.11;1733835;82;21568;-57
2020/12/10 02:16:22;;;;;;;17.90;7.97;;;;;;;2.60;100.00;101439.33;1764006;81;21003;-58
2020/12/10 02:18:56;;;;;;;24.57;7.92;;;;;;;2.61;100.00;101440.23;1764006;81;21392;-57
2020/12/10 02:21:24;;;;;;;14.70;7.40;;;;;;;2.63;100.00;101443.78;1764071;81;21007;-58
2020/12/10 02:23:55;;;;;;;25.37;7.65;;;;;;;2.62;100.00;101442.01;1733887;82;21150;-57
2020/12/10 02:26:24;;;;;;;18.02;7.87;;;;;;;2.58;100.00;101445.05;1764017;81;21202;-57
2020/12/10 02:28:59;;;;;;;24.75;8.18;;;;;;;2.55;100.00;101428.72;1763854;81;21181;-57
2020/12/10 02:31:28;;;;;;;14.05;6.97;;;;;;;2.57;100.00;101443.28;1763653;81;21227;-57
2020/12/10 02:34:05;;;;;;;16.90;6.65;;;;;;;2.57;100.00;101421.67;1733864;82;21502;-57
2020/12/10 02:36:33;;;;;;;20.57;8.25;;;;;;;2.60;100.00;101441.98;1764503;81;21009;-56
2020/12/10 02:39:01;;;;;;;22.37;8.33;;;;;;;2.62;100.00;101432.28;1765617;81;21111;-57
2020/12/10 02:41:28;;;;;;;16.45;7.60;;;;;;;2.63;100.00;101412.87;1765543;81;21123;-57
2020/12/10 02:43:57;;;;;;;14.85;7.53;;;;;;;2.65;100.00;101410.25;1765649;81;21345;-57
2020/12/10 02:46:25;;;;;;;25.25;8.30;;;;;;;2.66;100.00;101406.73;1765447;81;21164;-57
2020/12/10 02:48:53;;;;;;;16.50;7.83;;;;;;;2.66;100.00;101412.03;1765656;81;21033;-56
2020/12/10 02:51:21;;;;;;;17.55;8.28;;;;;;;2.65;100.00;101412.91;1765528;81;21201;-57
2020/12/10 02:53:48;;;;;;;17.98;7.33;;;;;;;2.65;100.00;101424.40;1765582;81;21067;-58
2020/12/10 02:56:16;;;;;;;20.62;7.80;;;;;;;2.64;100.00;101410.68;1762633;81;21714;-57
2020/12/10 02:58:44;;;;;;;18.12;7.87;;;;;;;2.67;100.00;101399.23;1757551;81;21570;-56
2020/12/10 03:01:11;;;;;;;19.02;8.35;;;;;;;2.67;100.00;101394.84;1757370;81;21024;-57
2020/12/10 03:03:39;;;;;;;22.65;8.48;;;;;;;2.69;100.00;101374.55;1757442;81;21064;-57
2020/12/10 03:06:07;;;;;;;18.30;8.08;;;;;;;2.74;100.00;101379.00;1757402;81;21068;-57
2020/12/10 03:08:36;;;;;;;21.90;7.65;;;;;;;2.77;100.00;101378.59;1757327;81;21471;-56
2020/12/10 03:11:06;;;;;;;21.05;7.78;;;;;;;2.79;100.00;101374.19;1757303;81;21123;-57
2020/12/10 03:13:33;;;;;;;24.50;7.92;;;;;;;2.82;100.00;101383.47;1757349;81;21143;-57
2020/12/10 03:16:01;;;;;;;21.17;7.70;;;;;;;2.83;100.00;101385.25;1757384;81;21203;-57
2020/12/10 03:18:28;;;;;;;18.87;7.95;;;;;;;2.85;100.00;101375.97;1757435;81;21072;-57
2020/12/10 03:20:56;;;;;;;21.33;7.42;;;;;;;2.84;100.00;101380.40;1757431;81;21213;-57
2020/12/10 03:23:24;;;;;;;18.52;7.40;;;;;;;2.83;100.00;101372.00;1757467;81;21191;-57
2020/12/10 03:25:51;;;;;;;19.45;7.90;;;;;;;2.84;100.00;101376.42;1757589;81;21219;-57
2020/12/10 03:28:19;;;;;;;16.77;8.20;;;;;;;2.83;100.00;101362.73;1757377;81;21179;-56
2020/12/10 03:30:46;;;;;;;15.85;8.08;;;;;;;2.81;100.00;101373.76;1757540;81;21171;-57
2020/12/10 03:33:14;;;;;;;16.10;7.65;;;;;;;2.81;100.00;101356.55;1757398;81;21676;-57
2020/12/10 03:35:45;;;;;;;19.75;6.50;;;;;;;2.82;100.00;101353.02;1757362;81;21159;-57
2020/12/10 03:38:12;;;;;;;15.58;6.85;;;;;;;2.81;100.00;101365.81;1734065;82;21153;-57
2020/12/10 03:40:40;;;;;;;18.52;7.60;;;;;;;2.80;100.00;101352.55;1734103;82;21046;-56
2020/12/10 03:43:07;;;;;;;15.13;6.67;;;;;;;2.80;100.00;101351.22;1734243;82;21070;-56
2020/12/10 03:45:35;;;;;;;13.60;6.85;;;;;;;2.81;100.00;101363.59;1734213;82;21377;-57
2020/12/10 03:48:02;;;;;;;18.75;7.20;;;;;;;2.82;100.00;101346.40;1734240;82;21121;-57
2020/12/10 03:50:31;;;;;;;17.77;6.92;;;;;;;2.82;100.00;101330.93;1734166;82;21161;-57
2020/12/10 03:52:58;;;;;;;16.50;7.42;;;;;;;2.83;100.00;101337.58;1734248;82;21054;-56
2020/12/10 03:55:27;;;;;;;12.95;5.90;;;;;;;2.83;100.00;101333.60;1734205;82;21134;-57
2020/12/10 03:57:55;;;;;;;14.45;6.37;;;;;;;2.89;100.00;101337.16;1734444;81;21392;-56
2020/12/10 04:00:22;;;;;;;19.48;6.25;;;;;;;2.90;100.00;101345.55;1734366;82;21116;-57
2020/12/10 04:02:50;;;;;;;13.78;6.62;;;;;;;2.90;100.00;101354.82;1734536;82;21127;-56
2020/12/10 04:05:18;;;;;;;16.25;6.83;;;;;;;2.88;100.00;101345.56;1734459;82;21058;-56
2020/12/10 04:07:46;;;;;;;15.53;6.45;;;;;;;2.87;100.00;101338.45;1734438;82;21077;-57
2020/12/10 04:10:13;;;;;;;13.85;6.65;;;;;;;2.88;100.00;101324.79;1734527;82;21397;-56
2020/12/10 04:12:41;;;;;;;15.20;6.33;;;;;;;2.91;100.00;101335.40;1734506;82;21951;-57
2020/12/10 04:15:08;;;;;;;13.98;5.60;;;;;;;2.92;100.00;101331.87;1734487;82;21097;-57
2020/12/10 04:17:36;;;;;;;14.83;6.75;;;;;;;2.92;100.00;101339.81;1734396;82;21074;-57
2020/12/10 04:20:04;;;;;;;15.03;6.60;;;;;;;2.94;100.00;101324.81;1734508;82;21149;-57
2020/12/10 04:22:32;;;;;;;14.30;6.20;;;;;;;2.95;100.00;101331.89;1734491;82;21173;-56
2020/12/10 04:24:59;;;;;;;14.15;6.25;;;;;;;2.97;100.00;101321.76;1734617;82;21259;-56
2020/12/10 04:27:27;;;;;;;20.02;7.15;;;;;;;2.98;100.00;101330.16;1734627;82;22261;-57
2020/12/10 04:29:55;;;;;;;16.95;5.72;;;;;;;2.97;100.00;101324.83;1734608;82;21201;-57
2020/12/10 04:32:22;;;;;;;14.93;6.20;;;;;;;3.00;100.00;101332.83;1734455;82;21177;-57
2020/12/10 04:34:50;;;;;;;14.90;5.83;;;;;;;2.99;100.00;101312.51;1734510;82;21382;-57
2020/12/10 04:37:18;;;;;;;11.40;5.58;;;;;;;3.01;100.00;101324.00;1752976;81;21146;-57
2020/12/10 04:39:47;;;;;;;18.55;6.67;;;;;;;3.01;100.00;101335.47;1733965;81;21126;-56
2020/12/10 04:42:17;;;;;;;13.62;6.40;;;;;;;3.00;100.00;101335.48;1763991;81;21183;-56
2020/12/10 04:44:46;;;;;;;14.63;6.78;;;;;;;3.00;100.00;101314.28;1733937;82;21146;-56
2020/12/10 04:47:14;;;;;;;13.60;5.75;;;;;;;3.01;100.00;101321.35;1764154;81;22092;-55
2020/12/10 04:49:41;;;;;;;13.60;5.40;;;;;;;3.05;100.00;101320.48;1763988;81;21170;-56
2020/12/10 04:52:09;;;;;;;15.70;6.33;;;;;;;3.04;100.00;101314.73;1764033;81;21074;-56
2020/12/10 04:54:39;;;;;;;12.03;5.75;;;;;;;3.01;100.00;101307.65;1733874;81;21007;-56
2020/12/10 04:57:09;;;;;;;11.93;5.40;;;;;;;3.02;100.00;101311.20;1764020;81;21063;-57
2020/12/10 04:59:36;;;;;;;14.93;6.05;;;;;;;3.01;100.00;101293.53;1734035;82;22245;-57
2020/12/10 05:02:12;;;;;;;13.15;6.20;;;;;;;3.00;100.00;101293.09;1763957;81;21108;-56
2020/12/10 05:04:40;;;;;;;14.80;5.80;;;;;;;3.00;100.00;101298.38;1733953;82;21082;-56
2020/12/10 05:07:07;;;;;;;16.67;5.97;;;;;;;2.98;100.00;101299.69;1763939;81;21086;-55
2020/12/10 05:09:36;;;;;;;12.88;5.72;;;;;;;2.98;100.00;101309.38;1733990;81;21060;-56
2020/12/10 05:12:18;;;;;;;13.88;6.45;;;;;;;2.97;100.00;101292.62;1763964;81;21368;-56
2020/12/10 05:14:46;;;;;;;13.00;6.17;;;;;;;2.96;100.00;101272.73;1733837;82;21027;-56
2020/12/10 05:17:15;;;;;;;19.00;5.75;;;;;;;2.95;100.00;101286.85;1763895;81;21138;-56
2020/12/10 05:19:44;;;;;;;16.17;6.20;;;;;;;2.97;100.00;101278.47;1764012;81;21114;-56
2020/12/10 05:22:13;;;;;;;15.78;6.10;;;;;;;2.98;100.00;101284.22;1713323;82;21146;-56
2020/12/10 05:24:40;;;;;;;14.95;6.05;;;;;;;2.99;100.00;101288.67;1764049;81;21615;-56
2020/12/10 05:27:20;;;;;;;14.43;6.33;;;;;;;3.00;100.00;101311.63;1733732;82;21090;-55
2020/12/10 05:29:50;;;;;;;13.85;5.78;;;;;;;3.02;100.00;101300.60;1764009;81;21143;-56
2020/12/10 05:32:42;;;;;;;14.18;5.75;;;;;;;3.05;100.00;101319.16;1764032;81;21098;-56
2020/12/10 05:35:24;;;;;;;16.73;5.97;;;;;;;3.09;100.00;101311.67;1733905;82;21058;-55
2020/12/10 05:37:53;;;;;;;15.83;5.97;;;;;;;3.11;100.00;101310.36;1764712;81;21240;-55
2020/12/10 05:40:21;;;;;;;14.65;5.97;;;;;;;3.11;100.00;101312.55;1764645;81;21058;-55
2020/12/10 05:42:50;;;;;;;13.25;5.33;;;;;;;3.15;100.00;101314.80;1764876;81;21071;-56
2020/12/10 05:45:22;;;;;;;15.58;6.17;;;;;;;3.15;100.00;101314.34;1764840;81;21764;-56
2020/12/10 05:47:58;;;;;;;17.45;6.42;;;;;;;3.14;100.00;101320.52;1763816;81;21157;-55
2020/12/10 05:50:31;;;;;;;12.37;5.90;;;;;;;3.15;100.00;101305.06;1764962;81;21825;-56
2020/12/10 05:53:13;;;;;;;19.98;6.55;;;;;;;3.15;100.00;101301.09;1764216;81;21070;-55
2020/12/10 05:55:45;;;;;;;18.50;6.45;;;;;;;3.19;100.00;101306.39;1764757;81;21161;-56
2020/12/10 05:58:13;;;;;;;13.65;6.33;;;;;;;3.20;100.00;101292.27;1771025;80;21128;-56
2020/12/10 06:00:41;;;;;;;13.98;5.90;;;;;;;3.19;100.00;101312.59;1773561;80;21042;-56
2020/12/10 06:03:09;;;;;;;12.18;6.28;;;;;;;3.20;100.00;101305.52;1773461;80;21349;-56
2020/12/10 06:05:38;;;;;;;16.05;6.10;;;;;;;3.22;100.00;101296.70;1745494;80;21097;-56
2020/12/10 06:08:08;;;;;;;13.48;6.25;;;;;;;3.26;100.00;101330.74;1773504;80;21194;-56
2020/12/10 06:10:40;;;;;;;15.18;6.60;;;;;;;3.29;100.00;101313.52;1773444;80;21133;-56
2020/12/10 06:13:10;;;;;;;14.03;6.30;;;;;;;3.32;100.00;101304.26;1773624;80;21177;-56
2020/12/10 06:15:37;;;;;;;12.18;7.00;;;;;;;3.38;100.00;101310.03;1773450;80;21423;-56
2020/12/10 06:18:15;;;;;;;18.95;7.53;;;;;;;3.40;100.00;101291.03;1773463;80;21552;-57
2020/12/10 06:20:44;;;;;;;14.87;6.65;;;;;;;3.39;100.00;101325.92;1773525;80;21157;-58
2020/12/10 06:23:31;;;;;;;15.25;7.20;;;;;;;3.39;100.00;101310.02;1773600;80;21484;-58
2020/12/10 06:26:27;;;;;;;17.62;6.97;;;;;;;3.37;100.00;101308.27;1773531;80;21066;-57
2020/12/10 06:29:17;;;;;;;16.90;6.65;;;;;;;3.36;100.00;101294.11;1767187;80;21736;-57
2020/12/10 06:32:05;;;;;;;15.25;6.70;;;;;;;3.41;100.00;101308.25;1857094;76;38650;-57
2020/12/10 06:34:37;;;;;;;15.68;6.47;;;;;;;3.42;100.00;101319.76;1838266;78;20985;-59
2020/12/10 06:37:28;;;;;;;18.57;7.45;;;;;;;3.45;100.00;101290.60;1834100;78;21118;-57
2020/12/10 06:40:05;;;;;;;15.55;7.58;;;;;;;3.48;100.00;101292.39;1828030;78;20983;-58
2020/12/10 06:42:46;;;;;;;13.25;6.58;;;;;;;3.48;100.00;101278.68;1828267;78;21023;-57
2020/12/10 06:45:28;;;;;;;15.75;6.70;;;;;;;3.53;100.00;101295.94;1828152;78;20971;-57
2020/12/10 06:47:56;;;;;;;15.35;6.90;;;;;;;3.54;100.00;101304.33;1828113;78;20991;-59
2020/12/10 06:50:31;;;;;;;17.42;7.85;;;;;;;3.54;100.00;101284.02;1827917;78;21363;-57
2020/12/10 06:53:21;;;;;;;16.87;6.97;;;;;;;3.53;100.00;101298.59;1827879;78;20996;-59
2020/12/10 06:56:02;;;;;;;15.78;7.00;;;;;;;3.54;100.00;101289.75;1809245;78;22260;-57
2020/12/10 06:58:42;;;;;;;15.32;7.12;;;;;;;3.54;100.00;101279.14;1828187;78;21031;-58
2020/12/10 07:01:29;;;;;;;14.63;6.50;;;;;;;3.58;100.00;101270.31;1828073;78;20975;-58
2020/12/10 07:07:21;;;;;;;13.25;6.65;;;;;;;3.63;100.00;101267.67;1807901;79;21116;-58
2020/12/10 07:09:56;;;;;;;14.80;6.95;;;;;;;3.63;100.00;101259.72;1808124;79;21108;-59
2020/12/10 07:12:27;;;;;;;15.78;6.67;;;;;;;3.67;100.00;101240.27;1808139;79;21053;-57
2020/12/10 07:15:16;;;;;;;15.38;7.25;;;;;;;3.70;100.00;101270.34;1807965;79;21104;-57
2020/12/10 07:17:49;;;;;;;14.53;6.28;;;;;;;3.72;100.00;101257.97;1808100;79;21202;-58
2020/12/10 07:20:18;;;;;;;12.00;6.12;;;;;;;3.76;100.00;101266.83;1807860;79;21107;-58
2020/12/10 07:22:46;;;;;;;12.80;6.53;;;;;;;3.77;100.00;101253.11;1807996;79;21155;-58
2020/12/10 07:25:14;;;;;;;11.88;6.05;;;;;;;3.78;100.00;101256.20;1808068;79;21081;-58
2020/12/10 07:27:43;;;;;;;12.07;5.60;;;;;;;3.79;100.00;101273.89;1808077;79;21171;-58
2020/12/10 07:30:15;;;;;;;13.22;6.65;;;;;;;3.81;100.00;101274.77;1808975;79;21158;-58
2020/12/10 07:32:44;;;;;;;11.38;6.78;;;;;;;3.83;100.00;101254.44;1813739;77;21500;-59
2020/12/10 07:35:12;;;;;;;14.85;6.62;;;;;;;3.90;100.00;101274.80;1834535;77;21095;-58
2020/12/10 07:37:40;;;;;;;17.80;7.80;;;;;;;3.93;100.00;101246.94;1826653;78;21673;-57
2020/12/10 07:40:13;;;;;;;11.73;6.53;;;;;;;3.94;100.00;101274.34;1829944;78;21161;-60
2020/12/10 07:42:40;;;;;;;12.68;6.50;;;;;;;3.93;100.00;101252.25;1829093;78;21354;-56
2020/12/10 07:45:17;;;;;;;15.48;7.10;;;;;;;3.93;100.00;101256.23;1829775;78;20972;-57
2020/12/10 07:48:00;;;;;;;16.65;7.87;;;;;;;3.95;100.00;101245.17;1829945;78;21625;-55
2020/12/10 07:50:39;;;;;;;13.32;6.83;;;;;;;3.97;100.00;101263.30;1829213;78;21125;-56
2020/12/10 07:53:07;;;;;;;16.70;7.58;;;;;;;3.97;100.00;101251.79;1829597;77;21298;-57
2020/12/10 07:55:52;;;;;;;15.68;7.33;;;;;;;3.98;100.00;101227.92;1830303;78;21573;-57
2020/12/10 07:58:45;;;;;;;14.25;7.22;;;;;;;4.03;100.00;101233.23;1829134;78;21094;-56
2020/12/10 08:01:14;;;;;;;13.88;6.50;;;;;;;4.06;100.00;101237.64;1829643;77;21135;-56
2020/12/10 08:04:15;;;;;;;14.23;7.55;;;;;;;4.07;100.00;101252.67;1827390;77;21049;-57
2020/12/10 08:06:43;;;;;;;16.60;7.42;;;;;;;4.07;100.00;101243.39;1842923;77;21064;-57
2020/12/10 08:09:11;;;;;;;14.33;6.90;;;;;;;4.08;100.00;101234.11;1820782;77;22517;-56
2020/12/10 08:11:54;;;;;;;15.03;6.72;;;;;;;4.08;100.00;101254.45;1829348;77;21571;-57
2020/12/10 08:14:29;;;;;;;22.30;8.70;;;;;;;4.08;100.00;101242.50;1813561;78;21059;-57
2020/12/10 08:17:00;;;;;;;19.92;7.37;;;;;;;4.09;100.00;101240.28;1809383;79;21345;-57
2020/12/10 08:19:32;;;;;;;20.57;7.92;;;;;;;4.10;100.00;101239.44;1814353;77;21119;-56
2020/12/10 08:22:00;;;;;;;14.07;7.30;;;;;;;4.12;100.00;101254.45;1846234;77;21341;-57
2020/12/10 08:24:46;;;;;;;14.85;6.85;;;;;;;4.15;100.00;101227.04;1844916;77;21001;-56
2020/12/10 08:27:18;;;;;;;14.68;7.47;;;;;;;4.16;100.00;101228.80;1834057;76;21199;-57
2020/12/10 08:32:54;;;;;;;36.50;9.55;;;;;;;4.24;100.00;101223.03;1828870;76;27792;-56
2020/12/10 08:35:22;;;;;;;14.73;8.83;;;;;;;4.26;100.00;101231.88;1814751;78;21548;-57
2020/12/10 08:37:51;;;;;;;17.60;7.47;;;;;;;4.37;100.00;101229.67;1814744;79;21348;-56
2020/12/10 08:40:26;;;;;;;19.30;8.30;;;;;;;4.37;100.00;101231.00;1814739;79;20946;-57
2020/12/10 08:42:54;;;;;;;15.30;7.50;;;;;;;4.37;100.00;101223.03;1814848;79;20935;-57
2020/12/10 08:45:31;;;;;;;18.40;8.43;;;;;;;4.39;100.00;101219.93;1814844;79;20986;-57
2020/12/10 08:48:00;;;;;;;16.52;8.10;;;;;;;4.40;100.00;101203.11;1814877;79;21048;-56
2020/12/10 08:50:29;;;;;;;15.48;8.28;;;;;;;4.44;100.00;101194.24;1814812;79;22340;-56
2020/12/10 08:53:03;;;;;;;20.20;8.60;;;;;;;4.44;100.00;101200.88;1814878;79;20935;-57
2020/12/10 08:55:45;;;;;;;15.03;7.53;;;;;;;4.43;100.00;101197.79;1814984;79;20935;-56
2020/12/10 08:58:26;;;;;;;14.87;8.35;;;;;;;4.44;100.00;101181.87;1814706;79;21152;-56
2020/12/10 09:00:55;;;;;;;16.75;8.13;;;;;;;4.48;100.00;101193.80;1814866;79;21029;-57
2020/12/10 09:03:24;;;;;;;17.48;9.15;;;;;;;4.47;100.00;101176.97;1814883;79;21556;-56
2020/12/10 09:05:52;;;;;;;21.68;9.10;;;;;;;4.52;100.00;101168.54;1814742;78;21109;-56
2020/12/10 09:08:20;;;;;;;19.48;9.20;;;;;;;4.59;100.00;101173.39;1814745;79;21022;-56
2020/12/10 09:10:48;;;;;;;18.55;9.03;;;;;;;4.64;100.00;101173.39;1814792;79;21061;-56
2020/12/10 09:13:16;;;;;;;23.67;10.55;;;;;;;4.70;100.00;101151.67;1814802;79;21053;-56
2020/12/10 09:15:44;;;;;;;18.85;8.60;;;;;;;4.73;100.00;101157.41;1812947;77;21188;-56
2020/12/10 09:18:12;;;;;;;19.98;10.08;;;;;;;4.81;100.00;101155.61;1814028;78;21554;-57
2020/12/10 09:20:41;;;;;;;19.90;9.25;;;;;;;4.86;100.00;101164.87;1814048;79;21120;-56
2020/12/10 09:23:10;;;;;;;22.13;9.88;;;;;;;4.92;100.00;101148.92;1814818;78;21584;-57
2020/12/10 09:25:38;;;;;;;21.42;9.75;;;;;;;4.95;100.00;101141.36;1814864;78;21037;-58
2020/12/10 09:28:08;;;;;;;18.00;8.13;;;;;;;5.00;100.00;101150.22;1815028;79;22196;-57
2020/12/10 09:30:37;;;;;;;16.20;8.95;;;;;;;5.04;100.00;101145.74;1814699;79;20994;-57
2020/12/10 09:33:06;;;;;;;21.65;10.03;;;;;;;5.09;100.00;101144.83;1814677;79;21069;-56
2020/12/10 09:35:34;;;;;;;22.62;10.80;;;;;;;5.13;100.00;101137.27;1814805;79;20946;-56
2020/12/10 09:38:03;;;;;;;15.95;8.88;;;;;;;5.19;100.00;101131.47;1769495;79;21132;-57
2020/12/10 09:40:32;;;;;;;21.33;10.63;;;;;;;5.24;100.00;101112.41;1766483;81;21242;-56
2020/12/10 09:43:00;;;;;;;23.00;10.48;;;;;;;5.27;100.00;101125.21;1766245;81;21180;-56
2020/12/10 09:45:28;;;;;;;21.33;9.85;;;;;;;5.30;100.00;101119.00;1765993;81;21085;-57
2020/12/10 09:47:56;;;;;;;18.92;9.58;;;;;;;5.32;100.00;101099.93;1765997;81;20962;-57
2020/12/10 09:50:25;;;;;;;23.67;10.23;;;;;;;5.38;100.00;101099.88;1765827;81;21101;-57
2020/12/10 09:55:44;;;;;;;16.52;9.20;;;;;;;5.48;100.00;101111.32;1796580;77;21110;-56
2020/12/10 09:58:03;;;;;;;19.60;8.93;;;;;;;5.48;100.00;101092.70;1785021;77;21183;-56
2020/12/10 10:00:31;;;;;;;17.73;8.75;;;;;;;5.49;100.00;101085.63;1720279;82;21165;-56
2020/12/10 10:02:58;;;;;;;18.20;9.53;;;;;;;5.52;100.00;101084.27;1770385;81;21053;-56
2020/12/10 10:05:28;;;;;;;18.82;8.80;;;;;;;5.53;100.00;101090.02;1769806;81;21207;-57
2020/12/10 10:07:55;;;;;;;17.55;8.95;;;;;;;5.55;100.00;101086.89;1770222;81;21136;-57
2020/12/10 10:10:23;;;;;;;20.37;8.70;;;;;;;5.58;100.00;101091.75;1770313;81;21175;-56
2020/12/10 10:12:51;;;;;;;19.67;8.45;;;;;;;5.62;100.00;101092.58;1766628;79;21156;-57
2020/12/10 10:15:18;;;;;;;16.77;8.35;;;;;;;5.67;100.00;101081.47;1759893;79;21087;-56
2020/12/10 10:17:46;;;;;;;17.27;8.75;;;;;;;5.70;100.00;101069.47;1735266;81;21367;-56
2020/12/10 10:20:14;;;;;;;17.65;8.75;;;;;;;5.71;100.00;101075.66;1734387;82;21141;-57
2020/12/10 10:22:41;;;;;;;19.50;7.53;;;;;;;5.73;100.00;101062.78;1734502;82;21219;-56
2020/12/10 10:25:08;;;;;;;16.05;7.75;;;;;;;5.82;100.00;101074.22;1734541;82;21196;-56
2020/12/10 10:27:36;;;;;;;15.83;7.83;;;;;;;5.89;100.00;101074.61;1754094;79;21177;-55
2020/12/10 10:30:07;;;;;;;14.78;8.23;;;;;;;5.97;100.00;101056.77;1761796;79;21200;-55
2020/12/10 10:32:35;;;;;;;16.90;8.85;;;;;;;6.00;100.00;101075.36;1764688;80;21207;-56
2020/12/10 10:35:03;;;;;;;15.38;8.58;;;;;;;6.05;100.00;101058.48;1764165;81;21193;-57
2020/12/10 10:37:30;;;;;;;16.57;8.55;;;;;;;6.10;100.00;101062.00;1742947;81;21125;-57
2020/12/10 10:39:58;;;;;;;16.80;8.68;;;;;;;6.18;100.00;101077.43;1734477;82;20948;-57
2020/12/10 10:42:25;;;;;;;20.55;9.10;;;;;;;6.24;100.00;101070.69;1734503;82;21349;-58
2020/12/10 10:44:54;;;;;;;16.73;8.33;;;;;;;6.27;100.00;101065.80;1746332;80;21066;-57
2020/12/10 10:47:22;;;;;;;16.80;8.48;;;;;;;6.33;100.00;101062.18;1737110;81;21108;-57
2020/12/10 10:49:49;;;;;;;15.45;8.10;;;;;;;6.37;100.00;101059.91;1734255;82;21197;-57
2020/12/10 10:52:17;;;;;;;16.90;9.40;;;;;;;6.41;100.00;101061.19;1734416;82;21070;-57
2020/12/10 10:54:44;;;;;;;20.95;10.35;;;;;;;6.44;100.00;101064.24;1734420;82;21510;-57
2020/12/10 10:57:12;;;;;;;17.35;9.50;;;;;;;6.48;100.00;101055.30;1734335;82;21150;-58
2020/12/10 10:59:40;;;;;;;19.05;9.60;;;;;;;6.49;100.00;101063.72;1734472;82;21322;-57
2020/12/10 11:02:08;;;;;;;23.95;9.45;;;;;;;6.50;100.00;101068.15;1734368;82;21086;-57
2020/12/10 11:04:36;;;;;;;18.60;9.80;;;;;;;6.55;100.00;101051.68;1734607;82;21481;-57
2020/12/10 11:07:05;;;;;;;18.90;10.25;;;;;;;6.63;100.00;101059.58;1734377;82;21344;-57
2020/12/10 11:09:33;;;;;;;18.42;9.25;;;;;;;6.70;100.00;101053.25;1734383;82;21149;-58
2020/12/10 11:12:03;;;;;;;15.83;9.00;;;;;;;6.81;100.00;101050.42;1734540;82;21054;-57
2020/12/10 11:14:30;;;;;;;21.57;8.83;;;;;;;6.81;100.00;101050.42;1734604;82;21103;-57
2020/12/10 11:16:58;;;;;;;19.00;8.93;;;;;;;6.84;100.00;101041.48;1734560;82;21723;-58
2020/12/10 11:19:26;;;;;;;20.90;8.65;;;;;;;6.85;100.00;101042.81;1734556;82;22716;-58
2020/12/10 11:21:53;;;;;;;19.85;9.25;;;;;;;6.88;100.00;101036.56;1734368;82;21155;-56
2020/12/10 11:24:21;;;;;;;21.62;10.08;;;;;;;6.92;100.00;101038.71;1734408;82;21134;-57
2020/12/10 11:26:52;;;;;;;18.87;9.05;;;;;;;6.96;100.00;101041.75;1737470;79;21222;-57
2020/12/10 11:29:20;;;;;;;16.40;8.68;;;;;;;7.00;100.00;101039.50;1744296;81;21125;-56
2020/12/10 11:31:48;;;;;;;15.88;7.90;;;;;;;7.02;100.00;101040.34;1734138;81;21330;-56
2020/12/10 11:34:18;;;;;;;14.83;7.37;;;;;;;7.01;100.00;101044.78;1734192;82;20985;-58
2020/12/10 11:36:46;;;;;;;15.45;8.10;;;;;;;7.00;100.00;101023.03;1746617;81;21066;-57
2020/12/10 11:39:14;;;;;;;17.98;8.18;;;;;;;7.05;100.00;101033.63;1747587;81;21181;-57